createdAt,value
2019-05-26T00:00:56.988Z,19.23
2019-05-26T00:06:02.004Z,18.62
2019-05-26T00:11:08.119Z,19.25
2019-05-26T00:16:13.254Z,20.37
2019-05-26T00:21:18.387Z,20.25
2019-05-26T00:26:23.509Z,20.75
2019-05-26T00:31:28.945Z,20.60
2019-05-26T00:36:34.132Z,22.83
2019-05-26T00:41:40.305Z,23.77
2019-05-26T00:46:45.605Z,26.02
2019-05-26T00:51:51.679Z,25.35
2019-05-26T00:56:56.809Z,21.17
2019-05-26T01:02:01.900Z,21.03
2019-05-26T01:07:06.937Z,20.85
2019-05-26T01:12:11.985Z,21.35
2019-05-26T01:17:17.170Z,21.55
2019-05-26T01:22:22.198Z,21.25
2019-05-26T01:27:27.264Z,22.10
2019-05-26T01:32:32.419Z,22.93
2019-05-26T01:37:37.886Z,22.90
2019-05-26T01:42:43.072Z,21.93
2019-05-26T01:47:48.539Z,22.42
2019-05-26T01:52:53.607Z,22.25
2019-05-26T01:57:58.731Z,26.60
2019-05-26T02:03:03.792Z,24.23
2019-05-26T02:08:11.767Z,22.37
2019-05-26T02:13:15.774Z,23.07
2019-05-26T02:18:20.876Z,22.55
2019-05-26T02:23:25.965Z,22.15
2019-05-26T02:28:31.376Z,22.97
2019-05-26T02:33:36.756Z,22.80
2019-05-26T02:38:59.746Z,23.00
2019-05-26T02:43:48.667Z,23.83
2019-05-26T02:48:53.727Z,22.42
2019-05-26T02:53:58.857Z,23.27
2019-05-26T02:59:03.921Z,24.05
2019-05-26T03:04:09.212Z,23.35
2019-05-26T03:09:22.648Z,24.72
2019-05-26T03:14:22.423Z,26.02
2019-05-26T03:19:28.108Z,27.70
2019-05-26T03:24:34.049Z,27.75
2019-05-26T03:29:40.133Z,28.97
2019-05-26T03:34:45.697Z,25.70
2019-05-26T03:39:51.115Z,27.07
2019-05-26T03:44:56.194Z,24.43
2019-05-26T03:50:01.481Z,22.83
2019-05-26T03:55:09.749Z,23.97
2019-05-26T04:00:15.118Z,27.63
2019-05-26T04:05:20.289Z,30.97
2019-05-26T04:10:25.287Z,35.73
2019-05-26T04:15:30.334Z,31.93
2019-05-26T04:20:35.374Z,29.43
2019-05-26T04:25:40.486Z,29.07
2019-05-26T04:30:45.610Z,33.27
2019-05-26T04:35:50.651Z,34.63
2019-05-26T04:40:56.055Z,27.30
2019-05-26T04:46:01.057Z,31.53
2019-05-26T04:51:06.089Z,29.27
2019-05-26T04:56:11.209Z,24.80
2019-05-26T05:01:16.588Z,25.10
2019-05-26T05:06:21.735Z,23.70
2019-05-26T05:11:26.876Z,27.73
2019-05-26T05:16:31.979Z,29.53
2019-05-26T05:21:37.067Z,30.27
2019-05-26T05:26:42.278Z,28.63
2019-05-26T05:31:47.364Z,29.77
2019-05-26T05:36:52.455Z,26.87
2019-05-26T05:41:57.492Z,24.70
2019-05-26T05:47:02.624Z,25.43
2019-05-26T05:52:07.971Z,25.67
2019-05-26T05:57:13.013Z,26.57
2019-05-26T06:02:18.055Z,23.50
2019-05-26T06:07:25.019Z,25.10
2019-05-26T06:12:30.209Z,27.07
2019-05-26T06:17:35.391Z,28.57
2019-05-26T06:22:40.483Z,25.63
2019-05-26T06:27:45.881Z,25.07
2019-05-26T06:32:51.016Z,24.03
2019-05-26T06:37:56.191Z,26.10
2019-05-26T06:43:01.227Z,24.13
2019-05-26T06:48:06.380Z,27.33
2019-05-26T06:53:11.507Z,23.92
2019-05-26T06:58:16.597Z,21.13
2019-05-26T07:03:21.964Z,22.50
2019-05-26T07:08:27.011Z,22.77
2019-05-26T07:13:32.455Z,22.63
2019-05-26T07:18:37.663Z,20.90
2019-05-26T07:23:42.957Z,24.43
2019-05-26T07:28:48.028Z,23.83
2019-05-26T07:33:53.073Z,22.22
2019-05-26T07:38:58.149Z,23.05
2019-05-26T07:44:03.215Z,21.52
2019-05-26T07:49:08.366Z,22.20
2019-05-26T07:54:25.041Z,20.08
2019-05-26T07:59:20.481Z,16.70
2019-05-26T08:04:25.751Z,18.02
2019-05-26T08:09:30.852Z,19.67
2019-05-26T08:14:37.025Z,17.03
2019-05-26T08:19:43.258Z,19.37
2019-05-26T08:24:48.306Z,19.10
2019-05-26T08:29:53.365Z,15.48
2019-05-26T08:34:58.565Z,14.10
2019-05-26T08:40:18.736Z,13.53
2019-05-26T08:45:24.004Z,15.23
2019-05-26T08:50:29.454Z,15.05
2019-05-26T08:55:34.551Z,15.38
2019-05-26T09:00:39.654Z,15.32
2019-05-26T09:05:44.872Z,15.93
2019-05-26T09:10:50.354Z,15.23
2019-05-26T09:15:55.445Z,14.43
2019-05-26T09:21:00.499Z,14.95
2019-05-26T09:26:07.021Z,17.20
2019-05-26T09:31:12.408Z,15.88
2019-05-26T09:36:17.596Z,16.32
2019-05-26T09:41:22.697Z,17.53
2019-05-26T09:46:27.806Z,17.07
2019-05-26T09:51:33.155Z,16.57
2019-05-26T09:56:38.333Z,17.00
2019-05-26T10:01:43.545Z,15.72
2019-05-26T10:06:49.595Z,16.30
2019-05-26T10:11:54.676Z,16.10
2019-05-26T10:16:59.735Z,14.28
2019-05-26T10:22:04.806Z,14.57
2019-05-26T10:27:10.916Z,15.60
2019-05-26T10:32:16.005Z,14.03
2019-05-26T10:37:21.495Z,13.95
2019-05-26T10:42:26.604Z,12.28
2019-05-26T10:47:31.624Z,14.35
2019-05-26T10:52:36.890Z,15.07
2019-05-26T10:57:42.004Z,12.45
2019-05-26T11:02:47.197Z,12.40
2019-05-26T11:07:52.667Z,13.60
2019-05-26T11:12:58.053Z,14.65
2019-05-26T11:18:03.124Z,13.30
2019-05-26T11:23:08.204Z,13.30
2019-05-26T11:28:13.716Z,16.60
2019-05-26T11:33:18.865Z,13.85
2019-05-26T11:38:24.040Z,14.03
2019-05-26T11:43:29.107Z,15.28
2019-05-26T11:48:34.238Z,16.15
2019-05-26T11:53:39.275Z,15.43
2019-05-26T11:58:44.438Z,12.37
2019-05-26T12:03:49.507Z,12.65
2019-05-26T12:08:54.679Z,12.10
2019-05-26T12:13:59.845Z,12.70
2019-05-26T12:19:05.374Z,12.28
2019-05-26T12:24:10.475Z,11.63
2019-05-26T12:29:15.694Z,10.98
2019-05-26T12:34:20.778Z,12.30
2019-05-26T12:39:25.884Z,12.43
2019-05-26T12:44:30.933Z,11.28
2019-05-26T12:49:35.514Z,11.47
2019-05-26T12:54:41.491Z,12.40
2019-05-26T12:59:46.950Z,13.38
2019-05-26T13:04:52.097Z,13.03
2019-05-26T13:09:57.323Z,11.57
2019-05-26T13:15:05.925Z,11.90
2019-05-26T13:20:13.425Z,11.85
2019-05-26T13:25:20.155Z,14.50
2019-05-26T13:30:28.055Z,12.93
2019-05-26T13:35:33.254Z,14.05
2019-05-26T13:40:38.555Z,12.87
2019-05-26T13:45:43.657Z,15.15
2019-05-26T13:50:48.734Z,13.15
2019-05-26T13:55:55.351Z,12.73
2019-05-26T14:01:00.372Z,13.35
2019-05-26T14:06:05.651Z,14.00
2019-05-26T14:11:10.752Z,13.70
2019-05-26T14:16:15.909Z,14.55
2019-05-26T14:21:20.952Z,14.28
2019-05-26T14:26:25.994Z,11.60
2019-05-26T14:31:31.052Z,12.07
2019-05-26T14:36:36.254Z,11.55
2019-05-26T14:41:41.337Z,12.82
2019-05-26T14:46:46.396Z,12.85
2019-05-26T14:51:51.486Z,11.57
2019-05-26T14:56:56.683Z,13.43
2019-05-26T15:02:03.673Z,12.40
2019-05-26T15:07:09.008Z,15.50
2019-05-26T15:12:14.066Z,13.63
2019-05-26T15:17:19.412Z,15.15
2019-05-26T15:22:26.435Z,12.05
2019-05-26T15:27:31.491Z,11.73
2019-05-26T15:32:36.548Z,12.20
2019-05-26T15:37:41.636Z,11.85
2019-05-26T15:42:47.052Z,12.33
2019-05-26T15:47:52.090Z,13.10
2019-05-26T15:52:57.204Z,12.80
2019-05-26T15:58:02.409Z,12.13
2019-05-26T16:03:07.523Z,13.35
2019-05-26T16:08:12.935Z,16.80
2019-05-26T16:13:18.228Z,13.20
2019-05-26T16:18:23.290Z,12.73
2019-05-26T16:23:28.574Z,11.20
2019-05-26T16:28:33.949Z,11.57
2019-05-26T16:33:39.058Z,12.82
2019-05-26T16:38:44.401Z,12.40
2019-05-26T16:43:49.464Z,11.63
2019-05-26T16:48:55.048Z,11.12
2019-05-26T16:54:00.323Z,11.78
2019-05-26T16:59:05.976Z,13.60
2019-05-26T17:04:11.116Z,14.17
2019-05-26T17:09:16.314Z,12.65
2019-05-26T17:14:21.832Z,11.83
2019-05-26T17:19:27.034Z,12.43
2019-05-26T17:24:33.589Z,11.87
2019-05-26T17:29:38.913Z,11.97
2019-05-26T17:34:44.024Z,11.85
2019-05-26T17:39:49.590Z,12.80
2019-05-26T17:44:54.757Z,12.23
2019-05-26T17:50:00.309Z,12.37
2019-05-26T17:55:05.954Z,11.25
2019-05-26T18:00:12.028Z,14.20
2019-05-26T18:05:17.427Z,14.80
2019-05-26T18:10:22.604Z,14.07
2019-05-26T18:15:27.751Z,11.93
2019-05-26T18:20:32.771Z,12.28
2019-05-26T18:25:37.794Z,12.28
2019-05-26T18:30:43.160Z,11.63
2019-05-26T18:35:48.322Z,11.08
2019-05-26T18:40:53.403Z,11.60
2019-05-26T18:45:58.710Z,13.35
2019-05-26T18:51:04.352Z,11.90
2019-05-26T18:56:09.402Z,11.35
2019-05-26T19:01:15.044Z,12.50
2019-05-26T19:06:20.390Z,11.90
2019-05-26T19:11:25.451Z,11.83
2019-05-26T19:16:30.552Z,11.63
2019-05-26T19:21:35.698Z,11.57
2019-05-26T19:26:40.777Z,11.63
2019-05-26T19:31:46.068Z,12.20
2019-05-26T19:36:51.152Z,12.05
2019-05-26T19:41:56.612Z,14.85
2019-05-26T19:47:02.640Z,17.13
2019-05-26T19:52:07.725Z,15.00
2019-05-26T19:57:14.319Z,14.73
2019-05-26T20:02:19.504Z,15.00
2019-05-26T20:07:24.589Z,14.90
2019-05-26T20:12:29.685Z,14.25
2019-05-26T20:17:34.690Z,12.43
2019-05-26T20:22:39.787Z,11.13
2019-05-26T20:27:44.850Z,13.13
2019-05-26T20:32:49.903Z,12.93
2019-05-26T20:37:55.034Z,12.00
2019-05-26T20:43:00.113Z,12.63
2019-05-26T20:48:05.468Z,14.53
2019-05-26T20:53:10.867Z,15.70
2019-05-26T20:58:16.410Z,13.50
2019-05-26T21:03:21.551Z,13.35
2019-05-26T21:08:26.716Z,15.43
2019-05-26T21:13:31.740Z,14.03
2019-05-26T21:18:36.796Z,14.30
2019-05-26T21:23:43.020Z,13.20
2019-05-26T21:28:48.096Z,13.05
2019-05-26T21:33:53.561Z,12.80
2019-05-26T21:38:58.619Z,13.10
2019-05-26T21:44:03.628Z,13.18
2019-05-26T21:49:09.101Z,12.43
2019-05-26T21:54:14.157Z,13.30
2019-05-26T21:59:19.207Z,14.90
2019-05-26T22:04:24.363Z,14.50
2019-05-26T22:09:31.536Z,13.53
2019-05-26T22:14:36.566Z,13.60
2019-05-26T22:19:42.574Z,12.80
2019-05-26T22:24:47.695Z,13.62
2019-05-26T22:29:52.735Z,14.40
2019-05-26T22:34:57.841Z,13.80
2019-05-26T22:40:02.897Z,13.78
2019-05-26T22:45:09.772Z,13.75
2019-05-26T22:50:17.826Z,14.03
2019-05-26T22:55:22.802Z,13.45
2019-05-26T23:00:28.093Z,14.18
2019-05-26T23:05:33.189Z,14.00
2019-05-26T23:10:38.341Z,14.68
2019-05-26T23:15:43.407Z,14.70
2019-05-26T23:20:48.424Z,14.55
2019-05-26T23:25:53.456Z,14.90
2019-05-26T23:30:58.576Z,15.40
2019-05-26T23:36:03.574Z,14.60
2019-05-26T23:41:08.974Z,14.78
2019-05-26T23:46:14.307Z,14.87
2019-05-26T23:51:19.404Z,15.07
2019-05-26T23:56:24.505Z,15.20
